Terminal Aerodrome Forecast
Issued by NWS

Home | Current Version | Previous Version | Text Only | Print | Product List | Glossary On
Versions: 1 2 3 4 5 6 7 8 9 10 11 12
000
FTUS44 KCRP 311700
TAFLRD
TAF
KLRD 311740Z 3118/0118 10005KT P6SM SCT050 BKN150
     FM010100 15012KT P6SM VCTS SCT060CB BKN150
     FM010300 17005KT P6SM SCT030 BKN200
      TEMPO 0110/0113 BKN025 OVC100
     FM011500 VRB03KT P6SM VCSH BKN040 OVC100 PROB30 0115/0118 3SM
      TSRA OVC035CB=

USA.gov is the U.S. government's official web portal to all federal, state and local government web resources and services.